sensor_id;sensor_type;location;lat;lon;timestamp;P1;durP1;ratioP1;P2;durP2;ratioP2
59159;SDS011;44941;45.058;20.076;2023-05-18T10:03:22;7.35;;;5.93;;
59159;SDS011;44941;45.058;20.076;2023-05-18T10:05:49;8.02;;;6.22;;
59159;SDS011;44941;45.058;20.076;2023-05-18T10:08:16;7.72;;;5.93;;
59159;SDS011;44941;45.058;20.076;2023-05-18T10:10:46;8.20;;;6.22;;
59159;SDS011;44941;45.058;20.076;2023-05-18T10:13:13;8.05;;;5.80;;
59159;SDS011;44941;45.058;20.076;2023-05-18T10:15:48;7.95;;;5.95;;
59159;SDS011;44941;45.058;20.076;2023-05-18T10:18:26;8.30;;;6.20;;
59159;SDS011;44941;45.058;20.076;2023-05-18T10:20:53;9.23;;;6.60;;
59159;SDS011;44941;45.058;20.076;2023-05-18T10:25:56;9.13;;;6.72;;
59159;SDS011;44941;45.058;20.076;2023-05-18T10:37:03;6.38;;;4.90;;
59159;SDS011;44941;45.058;20.076;2023-05-18T10:39:34;6.15;;;4.97;;
59159;SDS011;44941;45.058;20.076;2023-05-18T10:42:19;8.82;;;4.50;;
59159;SDS011;44941;45.058;20.076;2023-05-18T10:45:08;6.90;;;3.80;;
59159;SDS011;44941;45.058;20.076;2023-05-18T10:47:35;4.90;;;3.50;;
59159;SDS011;44941;45.058;20.076;2023-05-18T10:50:04;5.30;;;3.35;;
59159;SDS011;44941;45.058;20.076;2023-05-18T10:52:31;4.95;;;3.33;;
59159;SDS011;44941;45.058;20.076;2023-05-18T10:54:58;5.50;;;3.47;;
59159;SDS011;44941;45.058;20.076;2023-05-18T10:57:25;9.02;;;6.80;;
59159;SDS011;44941;45.058;20.076;2023-05-18T10:59:52;6.80;;;4.57;;
59159;SDS011;44941;45.058;20.076;2023-05-18T11:02:18;6.72;;;4.55;;
59159;SDS011;44941;45.058;20.076;2023-05-18T11:04:45;5.97;;;3.97;;
59159;SDS011;44941;45.058;20.076;2023-05-18T11:07:12;6.13;;;4.15;;
59159;SDS011;44941;45.058;20.076;2023-05-18T11:09:41;5.40;;;3.97;;
59159;SDS011;44941;45.058;20.076;2023-05-18T11:12:11;6.35;;;4.50;;
59159;SDS011;44941;45.058;20.076;2023-05-18T11:14:46;10.13;;;5.72;;
59159;SDS011;44941;45.058;20.076;2023-05-18T11:17:25;7.53;;;4.93;;
59159;SDS011;44941;45.058;20.076;2023-05-18T11:23:06;4.65;;;2.90;;
59159;SDS011;44941;45.058;20.076;2023-05-18T11:28:01;6.47;;;3.28;;
59159;SDS011;44941;45.058;20.076;2023-05-18T11:30:30;7.07;;;3.70;;
59159;SDS011;44941;45.058;20.076;2023-05-18T11:33:21;6.57;;;3.27;;
59159;SDS011;44941;45.058;20.076;2023-05-18T11:38:20;16.25;;;10.75;;
59159;SDS011;44941;45.058;20.076;2023-05-18T11:40:47;9.30;;;5.10;;
59159;SDS011;44941;45.058;20.076;2023-05-18T14:08:35;3.25;;;1.88;;
59159;SDS011;44941;45.058;20.076;2023-05-18T14:11:07;3.55;;;2.10;;
59159;SDS011;44941;45.058;20.076;2023-05-18T14:13:33;4.32;;;1.83;;
59159;SDS011;44941;45.058;20.076;2023-05-18T14:15:59;2.58;;;1.38;;
59159;SDS011;44941;45.058;20.076;2023-05-18T14:18:25;3.50;;;1.67;;
59159;SDS011;44941;45.058;20.076;2023-05-18T14:20:51;3.00;;;1.60;;
59159;SDS011;44941;45.058;20.076;2023-05-18T14:23:17;3.47;;;1.95;;
59159;SDS011;44941;45.058;20.076;2023-05-18T14:25:43;2.70;;;1.70;;
59159;SDS011;44941;45.058;20.076;2023-05-18T14:28:10;3.25;;;1.65;;
59159;SDS011;44941;45.058;20.076;2023-05-18T14:30:36;2.85;;;1.73;;
59159;SDS011;44941;45.058;20.076;2023-05-18T14:33:02;2.92;;;1.67;;
59159;SDS011;44941;45.058;20.076;2023-05-18T14:35:28;4.28;;;1.83;;
59159;SDS011;44941;45.058;20.076;2023-05-18T14:37:54;2.55;;;1.40;;
59159;SDS011;44941;45.058;20.076;2023-05-18T14:40:20;2.88;;;1.60;;
59159;SDS011;44941;45.058;20.076;2023-05-18T14:42:46;7.28;;;2.00;;
59159;SDS011;44941;45.058;20.076;2023-05-18T14:45:12;3.47;;;1.90;;
59159;SDS011;44941;45.058;20.076;2023-05-18T14:47:40;3.00;;;1.55;;
59159;SDS011;44941;45.058;20.076;2023-05-18T14:50:06;3.30;;;1.40;;
59159;SDS011;44941;45.058;20.076;2023-05-18T14:52:32;3.03;;;1.55;;
59159;SDS011;44941;45.058;20.076;2023-05-18T14:54:58;4.85;;;1.95;;
59159;SDS011;44941;45.058;20.076;2023-05-18T14:57:24;4.72;;;1.73;;
59159;SDS011;44941;45.058;20.076;2023-05-18T14:59:50;3.42;;;1.42;;
59159;SDS011;44941;45.058;20.076;2023-05-18T15:02:16;2.00;;;1.30;;
59159;SDS011;44941;45.058;20.076;2023-05-18T15:04:42;3.00;;;1.48;;
59159;SDS011;44941;45.058;20.076;2023-05-18T15:07:09;3.17;;;1.80;;
59159;SDS011;44941;45.058;20.076;2023-05-18T15:09:35;4.30;;;1.85;;
59159;SDS011;44941;45.058;20.076;2023-05-18T15:12:01;8.13;;;5.03;;
59159;SDS011;44941;45.058;20.076;2023-05-18T15:14:27;7.03;;;2.67;;
59159;SDS011;44941;45.058;20.076;2023-05-18T15:16:53;3.58;;;1.98;;
59159;SDS011;44941;45.058;20.076;2023-05-18T15:19:19;3.58;;;1.70;;
59159;SDS011;44941;45.058;20.076;2023-05-18T15:21:45;3.67;;;2.00;;
59159;SDS011;44941;45.058;20.076;2023-05-18T15:24:12;3.90;;;1.88;;
59159;SDS011;44941;45.058;20.076;2023-05-18T15:26:38;3.75;;;1.85;;
59159;SDS011;44941;45.058;20.076;2023-05-18T15:29:05;3.22;;;1.83;;
59159;SDS011;44941;45.058;20.076;2023-05-18T15:31:32;3.03;;;1.77;;
59159;SDS011;44941;45.058;20.076;2023-05-18T15:33:58;3.33;;;2.00;;
59159;SDS011;44941;45.058;20.076;2023-05-18T15:36:24;3.22;;;2.00;;
59159;SDS011;44941;45.058;20.076;2023-05-18T15:38:50;5.65;;;2.15;;
59159;SDS011;44941;45.058;20.076;2023-05-18T15:41:16;5.28;;;2.20;;
59159;SDS011;44941;45.058;20.076;2023-05-18T15:43:43;4.03;;;2.25;;
59159;SDS011;44941;45.058;20.076;2023-05-18T15:46:10;4.07;;;2.38;;
59159;SDS011;44941;45.058;20.076;2023-05-18T15:48:36;5.30;;;2.53;;
59159;SDS011;44941;45.058;20.076;2023-05-18T15:51:02;6.22;;;2.53;;
59159;SDS011;44941;45.058;20.076;2023-05-18T15:53:28;5.03;;;2.30;;
59159;SDS011;44941;45.058;20.076;2023-05-18T15:55:55;6.15;;;2.70;;
59159;SDS011;44941;45.058;20.076;2023-05-18T15:58:21;5.95;;;2.97;;
59159;SDS011;44941;45.058;20.076;2023-05-18T16:00:47;7.68;;;2.63;;
59159;SDS011;44941;45.058;20.076;2023-05-18T16:03:13;7.60;;;2.67;;
59159;SDS011;44941;45.058;20.076;2023-05-18T16:05:39;4.93;;;2.63;;
59159;SDS011;44941;45.058;20.076;2023-05-18T16:08:05;5.13;;;2.97;;
59159;SDS011;44941;45.058;20.076;2023-05-18T16:10:31;5.90;;;2.38;;
59159;SDS011;44941;45.058;20.076;2023-05-18T16:12:57;5.50;;;2.00;;
59159;SDS011;44941;45.058;20.076;2023-05-18T16:15:30;3.97;;;2.53;;
59159;SDS011;44941;45.058;20.076;2023-05-18T16:17:56;4.50;;;2.40;;
59159;SDS011;44941;45.058;20.076;2023-05-18T16:20:23;4.63;;;2.63;;
59159;SDS011;44941;45.058;20.076;2023-05-18T16:22:49;10.13;;;3.10;;
59159;SDS011;44941;45.058;20.076;2023-05-18T16:25:15;8.88;;;2.95;;
59159;SDS011;44941;45.058;20.076;2023-05-18T16:27:41;4.80;;;2.45;;
59159;SDS011;44941;45.058;20.076;2023-05-18T16:30:07;4.75;;;2.60;;
59159;SDS011;44941;45.058;20.076;2023-05-18T16:32:33;4.72;;;2.90;;
59159;SDS011;44941;45.058;20.076;2023-05-18T16:35:00;6.55;;;2.65;;
59159;SDS011;44941;45.058;20.076;2023-05-18T16:37:26;5.85;;;2.97;;
59159;SDS011;44941;45.058;20.076;2023-05-18T16:39:52;6.82;;;3.17;;
59159;SDS011;44941;45.058;20.076;2023-05-18T16:42:18;7.80;;;3.13;;
59159;SDS011;44941;45.058;20.076;2023-05-18T16:44:46;6.00;;;2.95;;
59159;SDS011;44941;45.058;20.076;2023-05-18T16:47:13;6.50;;;3.55;;
59159;SDS011;44941;45.058;20.076;2023-05-18T16:49:39;6.22;;;3.50;;
59159;SDS011;44941;45.058;20.076;2023-05-18T16:52:07;10.05;;;3.70;;
59159;SDS011;44941;45.058;20.076;2023-05-18T16:54:34;6.40;;;3.42;;
59159;SDS011;44941;45.058;20.076;2023-05-18T16:57:00;5.43;;;3.28;;
59159;SDS011;44941;45.058;20.076;2023-05-18T16:59:29;6.70;;;3.83;;
59159;SDS011;44941;45.058;20.076;2023-05-18T17:01:57;8.23;;;3.78;;
59159;SDS011;44941;45.058;20.076;2023-05-18T17:04:23;9.55;;;3.63;;
59159;SDS011;44941;45.058;20.076;2023-05-18T17:06:50;8.52;;;4.32;;
59159;SDS011;44941;45.058;20.076;2023-05-18T17:09:16;8.85;;;4.70;;
59159;SDS011;44941;45.058;20.076;2023-05-18T17:11:45;7.57;;;4.72;;
59159;SDS011;44941;45.058;20.076;2023-05-18T17:14:11;7.85;;;5.03;;
59159;SDS011;44941;45.058;20.076;2023-05-18T17:16:37;8.55;;;4.18;;
59159;SDS011;44941;45.058;20.076;2023-05-18T17:19:08;6.20;;;3.90;;
59159;SDS011;44941;45.058;20.076;2023-05-18T17:21:34;5.57;;;3.60;;
59159;SDS011;44941;45.058;20.076;2023-05-18T17:24:00;7.20;;;4.50;;
59159;SDS011;44941;45.058;20.076;2023-05-18T17:26:26;9.45;;;4.45;;
59159;SDS011;44941;45.058;20.076;2023-05-18T17:28:54;8.85;;;4.53;;
59159;SDS011;44941;45.058;20.076;2023-05-18T17:31:21;6.80;;;4.20;;
59159;SDS011;44941;45.058;20.076;2023-05-18T17:33:47;8.63;;;3.97;;
59159;SDS011;44941;45.058;20.076;2023-05-18T17:36:13;7.68;;;4.28;;
59159;SDS011;44941;45.058;20.076;2023-05-18T17:38:45;7.05;;;4.30;;
59159;SDS011;44941;45.058;20.076;2023-05-18T17:41:11;8.23;;;4.78;;
59159;SDS011;44941;45.058;20.076;2023-05-18T17:43:38;10.70;;;4.97;;
59159;SDS011;44941;45.058;20.076;2023-05-18T17:46:04;8.48;;;4.47;;
59159;SDS011;44941;45.058;20.076;2023-05-18T17:48:30;9.07;;;4.82;;
59159;SDS011;44941;45.058;20.076;2023-05-18T17:50:56;6.93;;;4.68;;
59159;SDS011;44941;45.058;20.076;2023-05-18T17:53:22;7.43;;;4.80;;
59159;SDS011;44941;45.058;20.076;2023-05-18T17:55:48;9.80;;;4.57;;
59159;SDS011;44941;45.058;20.076;2023-05-18T17:58:15;7.60;;;5.00;;
59159;SDS011;44941;45.058;20.076;2023-05-18T18:00:41;9.68;;;5.38;;
59159;SDS011;44941;45.058;20.076;2023-05-18T18:03:07;8.45;;;5.43;;
59159;SDS011;44941;45.058;20.076;2023-05-18T18:05:34;8.00;;;5.40;;
59159;SDS011;44941;45.058;20.076;2023-05-18T18:08:00;8.82;;;4.88;;
59159;SDS011;44941;45.058;20.076;2023-05-18T18:10:26;8.63;;;5.18;;
59159;SDS011;44941;45.058;20.076;2023-05-18T18:12:55;8.55;;;5.40;;
59159;SDS011;44941;45.058;20.076;2023-05-18T18:15:21;9.43;;;5.63;;
59159;SDS011;44941;45.058;20.076;2023-05-18T18:17:51;10.50;;;6.07;;
59159;SDS011;44941;45.058;20.076;2023-05-18T18:20:17;8.02;;;5.55;;
59159;SDS011;44941;45.058;20.076;2023-05-18T18:22:43;8.02;;;6.13;;
59159;SDS011;44941;45.058;20.076;2023-05-18T18:25:11;11.43;;;5.97;;
59159;SDS011;44941;45.058;20.076;2023-05-18T18:27:37;10.38;;;5.80;;
59159;SDS011;44941;45.058;20.076;2023-05-18T18:30:04;10.63;;;6.05;;
59159;SDS011;44941;45.058;20.076;2023-05-18T18:32:30;8.93;;;6.05;;
59159;SDS011;44941;45.058;20.076;2023-05-18T18:34:56;10.52;;;6.65;;
59159;SDS011;44941;45.058;20.076;2023-05-18T18:37:22;13.13;;;6.40;;
59159;SDS011;44941;45.058;20.076;2023-05-18T18:39:48;8.98;;;5.82;;
59159;SDS011;44941;45.058;20.076;2023-05-18T18:42:15;9.52;;;6.07;;
59159;SDS011;44941;45.058;20.076;2023-05-18T18:44:41;7.78;;;5.28;;
59159;SDS011;44941;45.058;20.076;2023-05-18T18:47:07;8.43;;;5.97;;
59159;SDS011;44941;45.058;20.076;2023-05-18T18:49:33;9.43;;;5.70;;
59159;SDS011;44941;45.058;20.076;2023-05-18T18:51:59;11.15;;;6.38;;
59159;SDS011;44941;45.058;20.076;2023-05-18T18:54:25;9.80;;;6.10;;
59159;SDS011;44941;45.058;20.076;2023-05-18T18:56:52;11.32;;;6.07;;
59159;SDS011;44941;45.058;20.076;2023-05-18T18:59:18;8.57;;;5.50;;
59159;SDS011;44941;45.058;20.076;2023-05-18T19:01:44;9.38;;;5.88;;
59159;SDS011;44941;45.058;20.076;2023-05-18T19:04:10;10.10;;;5.78;;
59159;SDS011;44941;45.058;20.076;2023-05-18T19:06:37;9.52;;;5.45;;
59159;SDS011;44941;45.058;20.076;2023-05-18T19:09:03;7.35;;;5.43;;
59159;SDS011;44941;45.058;20.076;2023-05-18T19:11:29;9.05;;;6.32;;
59159;SDS011;44941;45.058;20.076;2023-05-18T19:13:55;10.65;;;5.95;;
59159;SDS011;44941;45.058;20.076;2023-05-18T19:16:22;10.05;;;5.30;;
59159;SDS011;44941;45.058;20.076;2023-05-18T19:18:48;9.52;;;6.13;;
59159;SDS011;44941;45.058;20.076;2023-05-18T19:21:14;10.60;;;5.85;;
59159;SDS011;44941;45.058;20.076;2023-05-18T19:23:43;8.90;;;5.63;;
59159;SDS011;44941;45.058;20.076;2023-05-18T19:26:10;10.85;;;6.38;;
59159;SDS011;44941;45.058;20.076;2023-05-18T19:28:36;10.88;;;5.38;;
59159;SDS011;44941;45.058;20.076;2023-05-18T19:31:02;11.68;;;6.40;;
59159;SDS011;44941;45.058;20.076;2023-05-18T19:33:28;12.10;;;5.60;;
59159;SDS011;44941;45.058;20.076;2023-05-18T19:35:54;8.85;;;6.20;;
59159;SDS011;44941;45.058;20.076;2023-05-18T19:38:21;12.85;;;6.20;;
59159;SDS011;44941;45.058;20.076;2023-05-18T19:40:53;9.85;;;6.70;;
59159;SDS011;44941;45.058;20.076;2023-05-18T19:43:19;9.10;;;6.80;;
59159;SDS011;44941;45.058;20.076;2023-05-18T19:45:45;12.23;;;6.93;;
59159;SDS011;44941;45.058;20.076;2023-05-18T19:48:13;11.05;;;6.70;;
59159;SDS011;44941;45.058;20.076;2023-05-18T19:50:41;9.68;;;6.88;;
59159;SDS011;44941;45.058;20.076;2023-05-18T19:53:07;10.23;;;6.95;;
59159;SDS011;44941;45.058;20.076;2023-05-18T19:55:33;11.57;;;7.55;;
59159;SDS011;44941;45.058;20.076;2023-05-18T19:57:59;9.68;;;7.10;;
59159;SDS011;44941;45.058;20.076;2023-05-18T20:00:25;12.88;;;7.88;;
59159;SDS011;44941;45.058;20.076;2023-05-18T20:02:52;10.93;;;7.88;;
59159;SDS011;44941;45.058;20.076;2023-05-18T20:05:18;12.05;;;8.13;;
59159;SDS011;44941;45.058;20.076;2023-05-18T20:07:44;12.40;;;8.07;;
59159;SDS011;44941;45.058;20.076;2023-05-18T20:10:10;11.30;;;8.05;;
59159;SDS011;44941;45.058;20.076;2023-05-18T20:12:36;12.98;;;8.82;;
59159;SDS011;44941;45.058;20.076;2023-05-18T20:15:03;10.48;;;7.65;;
59159;SDS011;44941;45.058;20.076;2023-05-18T20:17:29;14.15;;;8.90;;
59159;SDS011;44941;45.058;20.076;2023-05-18T20:19:55;12.05;;;8.43;;
59159;SDS011;44941;45.058;20.076;2023-05-18T20:22:21;14.75;;;9.35;;
59159;SDS011;44941;45.058;20.076;2023-05-18T20:24:47;12.20;;;8.85;;
59159;SDS011;44941;45.058;20.076;2023-05-18T20:27:14;13.50;;;9.48;;
59159;SDS011;44941;45.058;20.076;2023-05-18T20:29:43;14.63;;;9.63;;
59159;SDS011;44941;45.058;20.076;2023-05-18T20:32:09;17.50;;;9.75;;
59159;SDS011;44941;45.058;20.076;2023-05-18T20:34:35;14.70;;;9.63;;
59159;SDS011;44941;45.058;20.076;2023-05-18T20:37:01;14.93;;;9.75;;
59159;SDS011;44941;45.058;20.076;2023-05-18T20:39:28;19.38;;;10.05;;
59159;SDS011;44941;45.058;20.076;2023-05-18T20:41:54;18.00;;;10.32;;
59159;SDS011;44941;45.058;20.076;2023-05-18T20:44:21;14.15;;;10.57;;
59159;SDS011;44941;45.058;20.076;2023-05-18T20:46:48;16.83;;;9.88;;
59159;SDS011;44941;45.058;20.076;2023-05-18T20:51:45;15.00;;;10.33;;
59159;SDS011;44941;45.058;20.076;2023-05-18T20:54:11;17.23;;;10.40;;
59159;SDS011;44941;45.058;20.076;2023-05-18T20:56:38;15.45;;;10.93;;
59159;SDS011;44941;45.058;20.076;2023-05-18T20:59:04;17.52;;;10.10;;
59159;SDS011;44941;45.058;20.076;2023-05-18T21:01:30;14.52;;;9.63;;
59159;SDS011;44941;45.058;20.076;2023-05-18T21:04:02;16.80;;;10.40;;
59159;SDS011;44941;45.058;20.076;2023-05-18T21:06:29;14.23;;;9.68;;
59159;SDS011;44941;45.058;20.076;2023-05-18T21:08:56;14.68;;;10.45;;
59159;SDS011;44941;45.058;20.076;2023-05-18T21:11:22;16.63;;;10.30;;
59159;SDS011;44941;45.058;20.076;2023-05-18T21:13:48;18.33;;;9.77;;
59159;SDS011;44941;45.058;20.076;2023-05-18T21:16:14;18.42;;;9.88;;
59159;SDS011;44941;45.058;20.076;2023-05-18T21:18:40;14.48;;;9.90;;
59159;SDS011;44941;45.058;20.076;2023-05-18T21:21:07;16.15;;;10.23;;
59159;SDS011;44941;45.058;20.076;2023-05-18T21:23:33;15.07;;;10.52;;
59159;SDS011;44941;45.058;20.076;2023-05-18T21:25:59;16.05;;;10.52;;
59159;SDS011;44941;45.058;20.076;2023-05-18T21:28:25;21.42;;;10.57;;
59159;SDS011;44941;45.058;20.076;2023-05-18T21:30:51;15.70;;;10.38;;
59159;SDS011;44941;45.058;20.076;2023-05-18T21:33:20;14.48;;;10.02;;
59159;SDS011;44941;45.058;20.076;2023-05-18T21:35:47;15.38;;;11.27;;
59159;SDS011;44941;45.058;20.076;2023-05-18T21:38:13;17.73;;;9.70;;
59159;SDS011;44941;45.058;20.076;2023-05-18T21:40:39;13.25;;;9.75;;
59159;SDS011;44941;45.058;20.076;2023-05-18T21:43:06;18.70;;;10.20;;
59159;SDS011;44941;45.058;20.076;2023-05-18T21:45:32;17.25;;;10.50;;
59159;SDS011;44941;45.058;20.076;2023-05-18T21:47:58;16.75;;;10.30;;
59159;SDS011;44941;45.058;20.076;2023-05-18T21:50:25;17.60;;;10.80;;
59159;SDS011;44941;45.058;20.076;2023-05-18T21:52:51;13.98;;;10.15;;
59159;SDS011;44941;45.058;20.076;2023-05-18T21:55:17;16.58;;;10.75;;
59159;SDS011;44941;45.058;20.076;2023-05-18T21:57:45;16.67;;;10.15;;
59159;SDS011;44941;45.058;20.076;2023-05-18T22:00:12;15.77;;;10.23;;
59159;SDS011;44941;45.058;20.076;2023-05-18T22:02:40;14.85;;;9.98;;
59159;SDS011;44941;45.058;20.076;2023-05-18T22:05:06;15.55;;;10.65;;
59159;SDS011;44941;45.058;20.076;2023-05-18T22:07:33;16.20;;;10.80;;
59159;SDS011;44941;45.058;20.076;2023-05-18T22:10:05;17.42;;;11.55;;
59159;SDS011;44941;45.058;20.076;2023-05-18T22:12:32;16.92;;;11.65;;
59159;SDS011;44941;45.058;20.076;2023-05-18T22:14:58;17.90;;;12.38;;
59159;SDS011;44941;45.058;20.076;2023-05-18T22:17:25;18.45;;;11.60;;
59159;SDS011;44941;45.058;20.076;2023-05-18T22:19:51;18.00;;;11.98;;
59159;SDS011;44941;45.058;20.076;2023-05-18T22:22:17;15.77;;;11.93;;
59159;SDS011;44941;45.058;20.076;2023-05-18T22:24:44;18.27;;;12.10;;
59159;SDS011;44941;45.058;20.076;2023-05-18T22:27:11;15.48;;;12.10;;
59159;SDS011;44941;45.058;20.076;2023-05-18T22:29:37;16.95;;;11.13;;
59159;SDS011;44941;45.058;20.076;2023-05-18T22:32:04;17.42;;;11.55;;
59159;SDS011;44941;45.058;20.076;2023-05-18T22:34:30;17.60;;;12.10;;
59159;SDS011;44941;45.058;20.076;2023-05-18T22:36:56;16.95;;;11.02;;
59159;SDS011;44941;45.058;20.076;2023-05-18T22:39:22;20.95;;;11.52;;
59159;SDS011;44941;45.058;20.076;2023-05-18T22:41:57;17.38;;;11.15;;
59159;SDS011;44941;45.058;20.076;2023-05-18T22:44:23;23.13;;;11.95;;
59159;SDS011;44941;45.058;20.076;2023-05-18T22:46:49;16.88;;;11.82;;
59159;SDS011;44941;45.058;20.076;2023-05-18T22:49:16;15.32;;;11.27;;
59159;SDS011;44941;45.058;20.076;2023-05-18T22:51:42;15.80;;;11.00;;
59159;SDS011;44941;45.058;20.076;2023-05-18T22:54:09;17.35;;;12.27;;
59159;SDS011;44941;45.058;20.076;2023-05-18T22:56:42;15.35;;;11.23;;
59159;SDS011;44941;45.058;20.076;2023-05-18T22:59:08;16.90;;;10.82;;
59159;SDS011;44941;45.058;20.076;2023-05-18T23:01:35;16.35;;;11.77;;
59159;SDS011;44941;45.058;20.076;2023-05-18T23:04:02;17.23;;;12.15;;
59159;SDS011;44941;45.058;20.076;2023-05-18T23:06:28;16.05;;;11.35;;
59159;SDS011;44941;45.058;20.076;2023-05-18T23:08:55;16.35;;;11.27;;
59159;SDS011;44941;45.058;20.076;2023-05-18T23:11:24;17.17;;;11.43;;
59159;SDS011;44941;45.058;20.076;2023-05-18T23:16:18;15.85;;;10.65;;
59159;SDS011;44941;45.058;20.076;2023-05-18T23:18:44;16.33;;;11.95;;
59159;SDS011;44941;45.058;20.076;2023-05-18T23:23:38;16.65;;;11.02;;
59159;SDS011;44941;45.058;20.076;2023-05-18T23:26:11;22.85;;;11.40;;
59159;SDS011;44941;45.058;20.076;2023-05-18T23:28:37;15.70;;;10.65;;
59159;SDS011;44941;45.058;20.076;2023-05-18T23:31:03;16.67;;;10.98;;
59159;SDS011;44941;45.058;20.076;2023-05-18T23:33:29;16.40;;;11.02;;
59159;SDS011;44941;45.058;20.076;2023-05-18T23:35:56;15.60;;;10.80;;
59159;SDS011;44941;45.058;20.076;2023-05-18T23:38:26;18.80;;;10.98;;
59159;SDS011;44941;45.058;20.076;2023-05-18T23:41:06;16.15;;;11.80;;
59159;SDS011;44941;45.058;20.076;2023-05-18T23:43:32;18.52;;;11.65;;
59159;SDS011;44941;45.058;20.076;2023-05-18T23:45:59;14.38;;;10.63;;
59159;SDS011;44941;45.058;20.076;2023-05-18T23:48:25;16.88;;;11.40;;
59159;SDS011;44941;45.058;20.076;2023-05-18T23:50:53;19.70;;;11.13;;
59159;SDS011;44941;45.058;20.076;2023-05-18T23:53:22;18.92;;;12.38;;
59159;SDS011;44941;45.058;20.076;2023-05-18T23:55:50;18.58;;;12.27;;
59159;SDS011;44941;45.058;20.076;2023-05-18T23:58:16;18.42;;;12.27;;
